Time;durP1;ratioP1;P1;durP2;ratioP2;P2;SDS_P1;SDS_P2;PMS_P1;PMS_P2;Temp;Humidity;BMP_temperature;BMP_pressure;BME280_temperature;BME280_humidity;BME280_pressure;Samples;Min_cycle;Max_cycle;Signal;HPM_P1;HPM_P2
2023/09/04 00:01:48;;;;;;;6.60;3.88;;;;;;;18.09;65.37;93746.03;2054159;70;20193;-78
2023/09/04 00:04:13;;;;;;;8.73;3.80;;;;;;;17.83;66.58;93731.97;2054277;70;20208;-78
2023/09/04 00:06:39;;;;;;;7.22;3.90;;;;;;;17.61;67.48;93730.81;2054209;70;20140;-77
2023/09/04 00:09:05;;;;;;;8.75;3.30;;;;;;;17.90;66.24;93744.41;2051184;70;20248;-78
2023/09/04 00:11:31;;;;;;;6.45;3.72;;;;;;;17.93;66.39;93743.88;2052059;70;20257;-77
2023/09/04 00:13:58;;;;;;;8.23;3.90;;;;;;;17.74;66.40;93742.22;2050950;70;20142;-77
2023/09/04 00:16:25;;;;;;;6.00;3.78;;;;;;;17.84;65.82;93741.97;2051043;70;20630;-78
2023/09/04 00:18:50;;;;;;;5.97;3.55;;;;;;;17.84;65.39;93732.72;2050862;70;20165;-78
2023/09/04 00:21:17;;;;;;;8.35;3.80;;;;;;;17.82;65.91;93733.31;2050788;70;20618;-78
2023/09/04 00:23:43;;;;;;;6.40;3.90;;;;;;;17.77;66.43;93738.06;2050920;70;20142;-78
2023/09/04 00:26:09;;;;;;;8.77;3.67;;;;;;;17.78;66.06;93733.13;2051083;70;20141;-79
2023/09/04 00:28:34;;;;;;;6.10;3.60;;;;;;;17.77;67.25;93734.50;2050705;70;20216;-79
2023/09/04 00:31:00;;;;;;;8.73;3.38;;;;;;;17.74;67.32;93730.81;2047556;70;20142;-78
2023/09/04 00:33:26;;;;;;;6.18;3.72;;;;;;;17.73;67.78;93743.59;2047734;70;20232;-79
2023/09/04 00:35:51;;;;;;;5.60;3.60;;;;;;;17.64;67.76;93726.69;2050889;70;20162;-78
2023/09/04 00:38:17;;;;;;;6.30;3.65;;;;;;;17.59;67.36;93720.03;2050945;70;20237;-79
2023/09/04 00:40:43;;;;;;;7.18;3.83;;;;;;;17.72;66.40;93736.38;2047576;70;20556;-79
2023/09/04 00:43:09;;;;;;;7.18;3.95;;;;;;;17.67;66.76;93734.69;2050767;70;20162;-78
2023/09/04 00:45:35;;;;;;;5.68;3.60;;;;;;;17.75;65.66;93737.97;2050846;70;20598;-79
2023/09/04 00:48:03;;;;;;;6.05;3.75;;;;;;;17.71;66.69;93739.88;2047944;70;20182;-79
2023/09/04 00:50:29;;;;;;;6.60;3.80;;;;;;;17.59;67.41;93725.00;2047821;70;20586;-79
2023/09/04 00:53:03;;;;;;;9.73;3.78;;;;;;;17.48;68.32;93715.22;2050839;70;20150;-79
2023/09/04 00:55:29;;;;;;;6.80;3.97;;;;;;;17.55;68.11;93731.25;2047890;70;20146;-79
2023/09/04 00:57:55;;;;;;;6.68;3.92;;;;;;;17.57;68.01;93724.91;2050875;70;20224;-80
2023/09/04 01:00:23;;;;;;;7.55;3.80;;;;;;;17.60;67.42;93720.78;2047500;70;20622;-80
2023/09/04 01:02:50;;;;;;;7.75;3.88;;;;;;;17.57;67.81;93711.41;2047640;70;20253;-79
2023/09/04 01:05:16;;;;;;;7.22;3.88;;;;;;;17.58;67.82;93720.69;2047592;70;20177;-79
2023/09/04 01:07:42;;;;;;;9.32;3.70;;;;;;;17.49;68.39;93717.41;2047414;70;20232;-78
2023/09/04 01:10:10;;;;;;;6.75;3.60;;;;;;;17.49;67.44;93717.41;2047697;70;20687;-78
2023/09/04 01:13:16;;;;;;;9.13;4.20;;;;;;;17.54;67.51;93724.06;2050812;70;20142;-79
2023/09/04 01:15:43;;;;;;;9.60;3.92;;;;;;;17.51;67.59;93697.59;2046707;70;20162;-80
2023/09/04 01:18:10;;;;;;;7.43;4.10;;;;;;;17.44;67.60;93707.19;2047254;70;20154;-78
2023/09/04 01:20:36;;;;;;;8.85;4.03;;;;;;;17.35;68.20;93705.28;2051109;70;20142;-79
2023/09/04 01:23:03;;;;;;;6.10;3.92;;;;;;;17.50;67.15;93712.44;2050777;70;20232;-79
2023/09/04 01:26:07;;;;;;;5.60;3.63;;;;;;;17.44;67.49;93692.97;2050817;70;20281;-80
2023/09/04 01:28:45;;;;;;;7.55;3.72;;;;;;;17.42;68.94;93704.25;2032933;70;20172;-79
2023/09/04 01:31:19;;;;;;;7.00;3.80;;;;;;;17.48;67.15;93696.00;2030471;70;20155;-79
2023/09/04 01:33:58;;;;;;;6.95;3.53;;;;;;;17.48;67.82;93707.41;2036845;70;20231;-78
2023/09/04 01:36:28;;;;;;;9.68;3.55;;;;;;;17.51;68.07;93697.59;2034044;70;20142;-80
2023/09/04 01:38:55;;;;;;;6.60;4.30;;;;;;;17.42;68.28;93698.56;2036596;70;20151;-77
2023/09/04 01:41:20;;;;;;;7.20;3.60;;;;;;;17.57;67.36;93702.13;2036740;70;20227;-77
2023/09/04 01:43:46;;;;;;;5.00;3.70;;;;;;;17.50;67.55;93701.06;2033972;70;20167;-79
2023/09/04 01:46:11;;;;;;;9.18;4.00;;;;;;;17.35;67.64;93690.34;2034101;70;20167;-78
2023/09/04 01:48:38;;;;;;;9.35;3.90;;;;;;;17.38;68.02;93686.97;2033831;70;20160;-77
2023/09/04 01:51:04;;;;;;;6.28;3.60;;;;;;;17.35;67.38;93685.38;2033949;70;20669;-78
2023/09/04 01:53:30;;;;;;;6.72;4.40;;;;;;;17.28;68.21;93690.03;2033973;70;20155;-78
2023/09/04 01:55:56;;;;;;;9.07;4.30;;;;;;;17.21;69.13;93691.06;2034152;70;20152;-78
2023/09/04 01:58:22;;;;;;;6.82;3.83;;;;;;;17.21;69.12;93685.38;2034216;70;20247;-78
2023/09/04 02:00:48;;;;;;;5.75;3.58;;;;;;;17.24;69.26;93694.78;2036865;70;20539;-78
2023/09/04 02:03:13;;;;;;;6.13;3.97;;;;;;;17.23;68.44;93690.47;2038868;70;20147;-76
2023/09/04 02:05:39;;;;;;;10.43;4.00;;;;;;;17.21;68.92;93688.22;2050694;70;20692;-79
2023/09/04 02:08:07;;;;;;;6.38;4.00;;;;;;;17.05;69.68;93678.84;2044501;70;20154;-79
2023/09/04 02:10:35;;;;;;;6.13;3.83;;;;;;;17.14;69.46;93680.03;2047178;70;20185;-79
2023/09/04 02:13:03;;;;;;;6.72;3.85;;;;;;;17.13;69.56;93682.09;2047028;70;20638;-78
2023/09/04 02:15:29;;;;;;;6.88;4.18;;;;;;;17.10;69.67;93689.06;2047095;70;20149;-78
2023/09/04 02:17:55;;;;;;;14.55;4.00;;;;;;;17.09;69.24;93684.00;2047444;70;20158;-77
2023/09/04 02:20:21;;;;;;;6.55;3.83;;;;;;;17.09;69.84;93686.84;2047480;70;20158;-78
2023/09/04 02:22:48;;;;;;;6.47;4.03;;;;;;;17.03;70.61;93679.47;2050562;70;20154;-78
2023/09/04 02:25:14;;;;;;;5.78;3.80;;;;;;;17.13;69.58;93684.22;2047109;70;20624;-78
2023/09/04 02:27:39;;;;;;;8.05;4.45;;;;;;;17.12;68.82;93680.63;2050435;70;20250;-79
2023/09/04 02:30:08;;;;;;;7.70;3.95;;;;;;;17.13;69.29;93681.38;2050439;70;20138;-78
2023/09/04 02:32:34;;;;;;;6.78;4.03;;;;;;;17.07;69.39;93669.69;2047156;70;20598;-78
2023/09/04 02:35:00;;;;;;;6.85;4.07;;;;;;;17.07;69.20;93681.78;2050522;70;20704;-78
2023/09/04 02:37:27;;;;;;;7.22;3.90;;;;;;;17.13;69.18;93681.38;2050569;70;20534;-78
2023/09/04 02:39:52;;;;;;;7.30;4.25;;;;;;;17.11;68.60;93673.47;2050776;70;20162;-79
2023/09/04 02:42:19;;;;;;;6.72;4.13;;;;;;;17.06;69.79;93676.75;2047505;70;20154;-78
2023/09/04 02:44:45;;;;;;;7.50;3.85;;;;;;;17.03;69.46;93665.25;2050971;70;20142;-78
2023/09/04 02:47:10;;;;;;;8.95;4.28;;;;;;;17.02;69.24;93663.78;2047834;70;20153;-79
2023/09/04 02:49:36;;;;;;;8.50;4.18;;;;;;;17.02;69.31;93665.88;2047537;70;20154;-79
2023/09/04 02:52:02;;;;;;;6.63;3.97;;;;;;;17.01;69.04;93678.66;2047627;70;20618;-79
2023/09/04 02:54:27;;;;;;;6.97;4.00;;;;;;;17.01;69.46;93679.38;2047755;70;20728;-79
2023/09/04 02:56:54;;;;;;;6.00;3.85;;;;;;;16.92;69.88;93682.44;2051303;70;20162;-78
2023/09/04 02:59:19;;;;;;;5.45;3.67;;;;;;;16.93;70.36;93678.94;2047440;70;20252;-79
2023/09/04 03:01:45;;;;;;;6.70;4.20;;;;;;;16.83;70.60;93686.94;2051210;70;20169;-78
2023/09/04 03:04:11;;;;;;;5.95;3.75;;;;;;;16.83;70.49;93681.25;2051101;70;20588;-78
2023/09/04 03:06:38;;;;;;;7.65;4.07;;;;;;;16.82;70.91;93691.16;2047808;70;20145;-79
2023/09/04 03:09:05;;;;;;;7.35;3.80;;;;;;;16.84;70.10;93688.41;2051241;70;20238;-79
2023/09/04 03:11:30;;;;;;;6.28;3.70;;;;;;;16.75;71.10;93680.81;2051053;70;20146;-78
2023/09/04 03:13:56;;;;;;;6.90;4.05;;;;;;;16.72;71.14;93676.38;2047895;70;20174;-80
2023/09/04 03:16:21;;;;;;;8.05;3.88;;;;;;;16.74;71.00;93680.09;2050951;70;20150;-79
2023/09/04 03:18:47;;;;;;;5.22;3.63;;;;;;;16.65;71.61;93683.09;2047562;70;20152;-79
2023/09/04 03:21:13;;;;;;;5.72;3.75;;;;;;;16.72;70.28;93682.84;2044866;70;20590;-79
2023/09/04 03:23:39;;;;;;;5.03;3.60;;;;;;;16.72;70.15;93688.53;2047502;70;20190;-78
2023/09/04 03:26:04;;;;;;;7.13;3.85;;;;;;;16.62;70.86;93681.50;2047667;70;20177;-79
2023/09/04 03:28:31;;;;;;;8.38;3.90;;;;;;;16.62;71.16;93678.66;2048083;70;20241;-80
2023/09/04 03:30:57;;;;;;;5.85;3.90;;;;;;;16.59;70.84;93677.09;2047773;70;20631;-80
2023/09/04 03:33:24;;;;;;;6.50;3.97;;;;;;;16.53;71.29;93671.78;2050890;70;20137;-79
2023/09/04 03:35:50;;;;;;;9.07;4.20;;;;;;;16.43;71.63;93674.81;2051156;70;20155;-79
2023/09/04 03:38:16;;;;;;;5.68;3.63;;;;;;;16.44;71.29;93676.28;2051021;70;20150;-79
2023/09/04 03:40:41;;;;;;;5.70;4.28;;;;;;;16.37;70.78;93674.50;2051187;70;20241;-79
2023/09/04 03:43:07;;;;;;;7.72;4.15;;;;;;;16.36;71.85;93678.72;2051151;70;20158;-79
2023/09/04 03:45:34;;;;;;;6.82;3.75;;;;;;;16.32;72.02;93683.44;2047619;70;20180;-79
2023/09/04 03:48:00;;;;;;;6.32;3.85;;;;;;;16.31;71.55;93682.69;2047793;70;20157;-78
2023/09/04 03:50:25;;;;;;;7.07;4.00;;;;;;;16.33;71.70;93682.06;2048013;70;20230;-77
2023/09/04 03:52:53;;;;;;;9.38;4.22;;;;;;;16.32;71.76;93680.59;2051132;70;20205;-79
2023/09/04 03:55:23;;;;;;;7.38;4.20;;;;;;;16.29;71.85;93676.88;2047968;70;20491;-79
2023/09/04 03:57:51;;;;;;;9.35;4.20;;;;;;;16.26;71.40;93666.78;2047671;70;20618;-80
2023/09/04 04:00:18;;;;;;;8.40;4.40;;;;;;;16.22;69.84;93680.78;2047758;70;20150;-79
2023/09/04 04:02:47;;;;;;;6.18;3.97;;;;;;;16.22;70.40;93680.78;2045130;70;20191;-79
2023/09/04 04:05:14;;;;;;;6.53;4.05;;;;;;;16.17;71.64;93684.72;2051291;70;20180;-78
2023/09/04 04:07:40;;;;;;;6.28;4.13;;;;;;;16.14;71.24;93683.16;2051212;70;20181;-80
2023/09/04 04:10:07;;;;;;;10.02;4.85;;;;;;;16.17;71.03;93676.97;2051303;70;20212;-78
2023/09/04 04:12:32;;;;;;;8.32;4.90;;;;;;;15.98;71.59;93663.81;2047925;70;20173;-78
2023/09/04 04:14:59;;;;;;;9.85;4.55;;;;;;;16.04;71.95;93679.75;2047776;70;20153;-77
2023/09/04 04:17:25;;;;;;;11.25;4.35;;;;;;;15.97;72.03;93685.06;2051707;70;20154;-77
2023/09/04 04:19:53;;;;;;;6.43;4.18;;;;;;;16.05;70.17;93679.13;2048286;70;20456;-80
2023/09/04 04:22:22;;;;;;;10.93;4.30;;;;;;;15.95;71.37;93682.13;2051832;70;20245;-80
2023/09/04 04:24:48;;;;;;;7.53;4.03;;;;;;;16.07;70.92;93684.91;2051922;70;20195;-81
2023/09/04 04:27:15;;;;;;;7.07;4.15;;;;;;;15.94;70.85;93677.81;2042806;70;20157;-81
2023/09/04 04:29:47;;;;;;;6.70;4.00;;;;;;;15.87;72.19;93684.50;2051243;70;20662;-80
2023/09/04 04:32:14;;;;;;;7.33;4.43;;;;;;;15.82;72.33;93677.13;2051413;70;20284;-80
2023/09/04 04:34:41;;;;;;;8.98;4.25;;;;;;;15.62;72.58;93675.91;2048264;70;20151;-80
2023/09/04 04:37:09;;;;;;;9.65;4.80;;;;;;;15.82;71.04;93679.22;2048207;70;20656;-80
2023/09/04 04:39:34;;;;;;;7.13;4.38;;;;;;;15.75;72.38;93675.28;2048201;70;20150;-80
2023/09/04 04:42:00;;;;;;;6.68;4.25;;;;;;;15.76;71.64;93671.09;2048277;70;20138;-81
2023/09/04 04:44:27;;;;;;;5.90;4.30;;;;;;;15.79;71.71;93675.53;2047947;70;20149;-80
2023/09/04 04:46:53;;;;;;;5.50;3.75;;;;;;;15.90;71.13;93679.69;2051512;70;20178;-80
2023/09/04 04:49:22;;;;;;;9.18;4.75;;;;;;;15.81;71.57;93675.66;2048061;70;20270;-80
2023/09/04 04:51:51;;;;;;;20.20;9.43;;;;;;;15.78;71.39;93676.16;2048088;70;20583;-82
2023/09/04 04:54:19;;;;;;;13.20;7.53;;;;;;;15.78;71.63;93668.38;2048162;70;20216;-80
2023/09/04 04:56:48;;;;;;;11.73;6.45;;;;;;;15.79;71.49;93671.94;2047910;70;20184;-80
2023/09/04 04:59:15;;;;;;;10.38;6.55;;;;;;;15.74;71.97;93671.72;2047844;70;20193;-77
2023/09/04 05:01:41;;;;;;;11.43;6.43;;;;;;;15.79;71.40;93675.53;2044550;70;20590;-80
2023/09/04 05:04:08;;;;;;;9.73;5.25;;;;;;;15.79;71.08;93671.94;2044515;70;20150;-81
2023/09/04 05:06:34;;;;;;;10.38;5.15;;;;;;;15.78;71.89;93676.88;2048194;70;20142;-79
2023/09/04 05:09:01;;;;;;;12.13;5.95;;;;;;;15.56;72.87;93681.25;2048088;70;20143;-79
2023/09/04 05:11:28;;;;;;;14.40;6.50;;;;;;;15.60;72.35;93685.06;2041800;70;20143;-79
2023/09/04 05:13:54;;;;;;;11.50;5.80;;;;;;;15.71;71.79;93686.41;2041817;70;20153;-79
2023/09/04 05:16:19;;;;;;;9.75;5.88;;;;;;;15.68;72.49;93696.94;2044566;70;20135;-79
2023/09/04 05:18:46;;;;;;;10.20;5.05;;;;;;;15.69;72.30;93704.06;2039198;70;20607;-79
2023/09/04 05:21:12;;;;;;;8.65;5.25;;;;;;;15.69;72.53;93709.00;2044549;70;20135;-80
2023/09/04 05:23:38;;;;;;;9.82;6.40;;;;;;;15.79;70.72;93709.59;2044504;70;20154;-79
2023/09/04 05:26:03;;;;;;;9.40;5.72;;;;;;;15.75;72.08;93717.88;2044552;70;20155;-80
2023/09/04 05:28:29;;;;;;;13.18;6.75;;;;;;;15.71;71.68;93712.72;2044389;70;20174;-79
2023/09/04 05:31:02;;;;;;;11.35;6.65;;;;;;;15.73;71.92;93712.09;2048105;70;20142;-81
2023/09/04 05:33:28;;;;;;;7.95;5.38;;;;;;;15.80;71.42;93718.84;2048092;70;20225;-80
2023/09/04 05:35:56;;;;;;;8.52;5.18;;;;;;;15.79;72.26;93717.38;2048065;70;20151;-80
2023/09/04 05:38:22;;;;;;;9.43;5.38;;;;;;;15.68;72.47;93710.38;2048069;70;20184;-80
2023/09/04 05:40:54;;;;;;;11.95;7.35;;;;;;;15.77;72.55;93720.84;2048245;70;20143;-80
2023/09/04 05:43:20;;;;;;;12.13;7.20;;;;;;;15.72;72.99;93711.34;2048155;70;20143;-79
2023/09/04 05:45:46;;;;;;;11.75;7.13;;;;;;;15.74;72.12;93707.88;2048026;70;20503;-79
2023/09/04 05:48:12;;;;;;;10.88;6.75;;;;;;;15.82;72.71;93707.63;2048077;70;20602;-79
2023/09/04 05:50:37;;;;;;;11.32;7.13;;;;;;;15.86;71.80;93714.28;2048032;70;20133;-78
2023/09/04 05:53:03;;;;;;;12.27;6.30;;;;;;;15.92;71.88;93716.72;2047979;70;20230;-78
2023/09/04 05:55:29;;;;;;;7.68;5.40;;;;;;;15.92;72.17;93723.13;2047852;70;20241;-78
2023/09/04 05:57:54;;;;;;;7.85;5.50;;;;;;;15.94;72.21;93723.25;2047774;70;20240;-78
2023/09/04 06:00:21;;;;;;;9.80;5.88;;;;;;;15.87;72.54;93723.53;2049145;70;20150;-78
2023/09/04 06:02:47;;;;;;;9.73;5.28;;;;;;;15.94;71.75;93722.50;2048072;70;20178;-78
2023/09/04 06:05:13;;;;;;;10.63;4.93;;;;;;;15.96;72.02;93728.31;2051309;70;20177;-78
2023/09/04 06:07:39;;;;;;;8.63;5.25;;;;;;;15.97;70.95;93724.84;2051466;70;20158;-78
2023/09/04 06:10:05;;;;;;;9.48;5.10;;;;;;;16.01;71.29;93724.34;2051414;70;20154;-81
2023/09/04 06:12:31;;;;;;;11.45;4.70;;;;;;;15.98;72.40;93720.63;2051294;70;20146;-78
2023/09/04 06:14:56;;;;;;;6.18;4.75;;;;;;;16.04;71.95;93731.63;2051121;70;20138;-79
2023/09/04 06:17:22;;;;;;;7.65;5.10;;;;;;;16.05;70.82;93730.25;2051321;70;20295;-79
2023/09/04 06:19:47;;;;;;;6.72;4.88;;;;;;;16.08;72.01;93706.28;2051174;70;20191;-80
2023/09/04 06:22:13;;;;;;;8.70;4.93;;;;;;;16.20;70.31;93734.63;2051240;70;20154;-81
2023/09/04 06:24:39;;;;;;;11.25;5.63;;;;;;;16.01;71.57;93727.91;2048002;70;20146;-81
2023/09/04 06:27:04;;;;;;;11.57;5.82;;;;;;;16.12;70.95;93726.38;2051253;70;20525;-82
2023/09/04 06:29:30;;;;;;;8.93;5.63;;;;;;;16.13;71.45;93732.81;2051241;70;20151;-82
2023/09/04 06:31:56;;;;;;;11.57;5.88;;;;;;;16.15;71.05;93736.50;2051436;70;20154;-82
2023/09/04 06:34:21;;;;;;;11.70;5.75;;;;;;;16.15;71.72;93742.19;2051289;70;20154;-82
2023/09/04 06:36:47;;;;;;;11.57;4.90;;;;;;;16.12;72.78;93742.69;2051275;70;20191;-82
2023/09/04 06:39:13;;;;;;;12.15;5.63;;;;;;;15.94;72.34;93720.41;2051216;70;20678;-81
2023/09/04 06:41:38;;;;;;;11.20;5.80;;;;;;;16.21;72.43;93741.78;2051246;70;20138;-81
2023/09/04 06:44:04;;;;;;;9.43;5.68;;;;;;;16.30;72.02;93734.47;2051207;70;20154;-83
2023/09/04 06:46:29;;;;;;;9.77;5.22;;;;;;;16.36;71.50;93734.81;2051363;70;20177;-82
2023/09/04 06:48:55;;;;;;;12.68;5.68;;;;;;;16.62;70.27;93726.97;2051370;70;20150;-81
2023/09/04 06:51:20;;;;;;;8.70;4.80;;;;;;;16.87;70.44;93726.97;2051279;70;20201;-81
2023/09/04 06:53:46;;;;;;;10.35;5.50;;;;;;;17.11;70.82;93733.22;2051402;70;20154;-82
2023/09/04 06:56:12;;;;;;;10.68;5.30;;;;;;;17.26;70.40;93740.41;2051247;70;20138;-82
2023/09/04 06:58:37;;;;;;;9.05;5.53;;;;;;;17.57;66.76;93724.91;2051068;70;20225;-81
2023/09/04 07:01:04;;;;;;;9.18;5.15;;;;;;;17.70;69.23;93736.28;2051123;70;20572;-82
2023/09/04 07:03:30;;;;;;;10.60;5.00;;;;;;;18.02;69.26;93740.03;2051129;70;20141;-81
2023/09/04 07:05:56;;;;;;;7.85;4.32;;;;;;;18.47;65.45;93736.53;2051228;70;20142;-81
2023/09/04 07:08:22;;;;;;;7.63;4.53;;;;;;;18.59;66.81;93742.06;2051238;70;20583;-81
2023/09/04 07:10:48;;;;;;;8.30;4.68;;;;;;;18.74;65.60;93735.69;2047943;70;20605;-81
2023/09/04 07:13:14;;;;;;;9.40;5.00;;;;;;;19.01;65.11;93737.66;2051189;70;20150;-81
2023/09/04 07:15:44;;;;;;;9.18;4.88;;;;;;;19.10;63.84;93735.16;2051224;70;20229;-81
2023/09/04 07:18:10;;;;;;;10.05;4.72;;;;;;;19.21;62.39;93740.69;2051162;70;20584;-82
2023/09/04 07:20:36;;;;;;;7.35;4.63;;;;;;;19.35;62.02;93740.59;2051155;70;20151;-82
2023/09/04 07:23:01;;;;;;;12.88;5.20;;;;;;;19.37;61.89;93742.78;2051272;70;20138;-82
2023/09/04 07:25:27;;;;;;;6.55;4.60;;;;;;;18.99;62.16;93743.25;2051248;70;20593;-82
2023/09/04 07:27:52;;;;;;;7.72;4.30;;;;;;;19.58;61.86;93747.31;2051156;70;20168;-82
2023/09/04 07:30:18;;;;;;;6.68;4.72;;;;;;;19.64;60.22;93741.88;2051169;70;20154;-83
2023/09/04 07:32:44;;;;;;;7.20;4.88;;;;;;;19.73;60.52;93749.41;2051866;70;20158;-83
2023/09/04 07:35:10;;;;;;;8.40;4.63;;;;;;;20.03;59.47;93745.00;2051672;70;20238;-83
2023/09/04 07:37:35;;;;;;;8.93;4.72;;;;;;;20.01;59.69;93744.91;2051693;70;20582;-83
2023/09/04 07:40:03;;;;;;;6.60;4.22;;;;;;;20.72;57.83;93741.41;2051652;70;20145;-83
2023/09/04 07:42:29;;;;;;;9.00;4.90;;;;;;;19.87;59.53;93743.56;2052246;70;20142;-83
2023/09/04 07:44:55;;;;;;;7.75;4.45;;;;;;;19.97;59.16;93741.13;2051499;70;20131;-82
2023/09/04 07:47:21;;;;;;;5.50;4.25;;;;;;;20.62;58.74;93735.28;2051765;70;20684;-82
2023/09/04 07:49:46;;;;;;;8.65;4.82;;;;;;;20.70;57.72;93732.72;2051774;70;20134;-82
2023/09/04 07:52:12;;;;;;;5.22;4.20;;;;;;;21.34;56.49;93732.31;2051766;70;20590;-82
2023/09/04 07:54:38;;;;;;;7.07;4.22;;;;;;;21.72;55.16;93718.66;2051744;70;20161;-82
2023/09/04 07:57:05;;;;;;;5.82;4.15;;;;;;;21.50;55.10;93718.59;2051670;70;20159;-82
2023/09/04 07:59:32;;;;;;;7.20;3.75;;;;;;;21.68;54.97;93727.09;2051355;70;20625;-82
2023/09/04 08:01:59;;;;;;;5.68;3.85;;;;;;;21.61;54.53;93720.41;2051752;70;20229;-83
2023/09/04 08:04:24;;;;;;;4.35;3.55;;;;;;;22.12;54.24;93710.72;2048475;70;20237;-82
2023/09/04 08:06:50;;;;;;;6.68;4.55;;;;;;;22.40;52.88;93718.81;2051711;70;20233;-83
2023/09/04 08:09:15;;;;;;;7.53;4.18;;;;;;;22.67;51.00;93718.25;2051630;70;20174;-82
2023/09/04 08:11:41;;;;;;;4.78;4.00;;;;;;;23.24;50.98;93728.66;2051591;70;20142;-82
2023/09/04 08:14:06;;;;;;;5.00;3.65;;;;;;;23.46;50.73;93722.09;2051479;70;20142;-83
2023/09/04 08:16:32;;;;;;;7.13;4.00;;;;;;;23.55;49.17;93730.31;2051593;70;20178;-83
2023/09/04 08:18:58;;;;;;;7.55;3.78;;;;;;;23.84;49.97;93734.72;2051573;70;20495;-83
2023/09/04 08:21:23;;;;;;;4.78;3.75;;;;;;;24.13;48.98;93735.47;2051549;70;20154;-83
2023/09/04 08:23:49;;;;;;;5.20;3.58;;;;;;;24.50;47.53;93730.69;2051573;70;20602;-83
2023/09/04 08:26:15;;;;;;;5.70;4.03;;;;;;;24.57;47.96;93729.44;2051689;70;20590;-83
2023/09/04 08:28:41;;;;;;;5.75;4.10;;;;;;;25.06;46.38;93725.59;2051432;70;20135;-83
2023/09/04 08:31:07;;;;;;;5.68;3.80;;;;;;;24.84;46.41;93719.31;2051638;70;20206;-83
2023/09/04 08:33:34;;;;;;;8.23;3.70;;;;;;;24.18;46.77;93722.66;2051570;70;20253;-83
2023/09/04 08:36:00;;;;;;;4.32;3.88;;;;;;;24.49;46.53;93711.97;2051559;70;20234;-83
2023/09/04 08:38:26;;;;;;;4.32;3.55;;;;;;;24.73;47.23;93717.59;2051517;70;20156;-84
2023/09/04 08:40:55;;;;;;;4.03;3.55;;;;;;;24.84;47.78;93722.91;2051592;70;20146;-85
2023/09/04 08:43:24;;;;;;;4.75;3.85;;;;;;;24.43;47.39;93726.22;2051348;70;20147;-84
2023/09/04 08:45:51;;;;;;;4.07;3.53;;;;;;;25.13;47.62;93725.75;2051652;70;20173;-84
2023/09/04 08:48:20;;;;;;;6.43;3.97;;;;;;;25.87;46.30;93723.00;2051601;70;20157;-83
2023/09/04 08:50:49;;;;;;;4.35;3.80;;;;;;;26.65;44.77;93721.56;2048272;70;20147;-83
2023/09/04 08:53:16;;;;;;;4.53;3.50;;;;;;;26.75;46.38;93724.59;2051380;70;20153;-85
2023/09/04 08:55:41;;;;;;;6.55;4.00;;;;;;;26.59;44.31;93708.47;2051539;70;20131;-84
2023/09/04 08:58:08;;;;;;;5.20;3.50;;;;;;;27.01;44.99;93701.91;2051442;70;20150;-86
2023/09/04 09:00:34;;;;;;;4.63;3.95;;;;;;;26.68;44.06;93714.38;2051363;70;20170;-83
2023/09/04 09:03:01;;;;;;;4.85;3.63;;;;;;;27.66;43.67;93707.16;2051612;70;20151;-85
2023/09/04 09:05:28;;;;;;;4.63;3.60;;;;;;;26.92;43.84;93702.47;2051462;70;20146;-86
2023/09/04 09:07:55;;;;;;;4.30;3.42;;;;;;;27.57;43.69;93715.72;2048246;70;20142;-86
2023/09/04 09:10:21;;;;;;;5.07;3.72;;;;;;;27.04;42.84;93711.34;2051548;70;20238;-85
2023/09/04 09:12:48;;;;;;;3.97;3.58;;;;;;;27.28;42.92;93713.88;2048359;70;20147;-85
2023/09/04 09:15:15;;;;;;;5.15;3.75;;;;;;;26.71;43.63;93705.06;2051397;70;20170;-85
2023/09/04 09:17:55;;;;;;;6.03;3.70;;;;;;;27.02;42.51;93711.31;2051477;70;20158;-83
2023/09/04 09:20:34;;;;;;;4.25;3.70;;;;;;;27.64;42.89;93701.34;2048327;70;20606;-86
2023/09/04 09:23:06;;;;;;;3.95;3.45;;;;;;;27.74;42.37;93692.81;2051531;70;20538;-84
2023/09/04 09:25:33;;;;;;;3.88;3.47;;;;;;;28.41;42.67;93693.56;2051480;70;20574;-86
2023/09/04 09:28:01;;;;;;;4.85;3.60;;;;;;;27.76;41.07;93696.44;2051426;70;20526;-85
2023/09/04 09:30:39;;;;;;;4.05;3.65;;;;;;;27.65;41.19;93689.06;2051385;70;20142;-86
2023/09/04 09:33:12;;;;;;;4.28;3.42;;;;;;;28.02;41.15;93687.34;2051607;70;20212;-86
2023/09/04 09:35:42;;;;;;;5.65;3.83;;;;;;;27.24;41.99;93676.25;2051486;70;20157;-86
2023/09/04 09:38:08;;;;;;;5.40;3.80;;;;;;;27.34;42.27;93680.00;2051544;70;20157;-86
2023/09/04 09:40:34;;;;;;;4.85;3.67;;;;;;;27.19;41.42;93677.63;2051671;70;20181;-84
2023/09/04 09:43:00;;;;;;;4.95;3.53;;;;;;;28.60;40.67;93672.00;2051559;70;20142;-85
2023/09/04 09:45:36;;;;;;;4.68;3.83;;;;;;;29.13;38.77;93671.69;2051333;70;20142;-84
2023/09/04 09:48:06;;;;;;;5.03;3.60;;;;;;;29.26;41.60;93661.63;2051591;70;20150;-85
2023/09/04 09:50:32;;;;;;;4.38;3.42;;;;;;;29.69;39.34;93664.03;2052193;70;20181;-87
2023/09/04 09:52:59;;;;;;;4.55;3.15;;;;;;;30.59;39.14;93671.53;2051609;70;20151;-85
2023/09/04 09:55:26;;;;;;;4.03;3.58;;;;;;;30.65;38.08;93673.69;2051405;70;20605;-87
2023/09/04 09:57:54;;;;;;;7.47;3.50;;;;;;;31.10;37.64;93671.53;2051360;70;20148;-84
2023/09/04 10:00:19;;;;;;;5.05;3.58;;;;;;;31.25;36.37;93672.25;2051257;70;20166;-88
2023/09/04 10:02:45;;;;;;;5.13;3.50;;;;;;;31.63;36.09;93665.63;2051386;70;20142;-85
2023/09/04 10:05:11;;;;;;;5.97;3.80;;;;;;;32.31;35.37;93671.16;2048131;70;20146;-86
2023/09/04 10:07:38;;;;;;;4.90;3.47;;;;;;;32.72;35.00;93673.81;2051545;70;20193;-87
2023/09/04 10:10:06;;;;;;;7.13;3.78;;;;;;;33.05;34.28;93666.28;2051397;70;20182;-87
2023/09/04 10:12:37;;;;;;;4.22;3.25;;;;;;;33.24;35.01;93672.66;2051384;70;20146;-86
2023/09/04 10:15:06;;;;;;;4.68;3.50;;;;;;;33.22;34.17;93660.28;2051292;70;20126;-84
2023/09/04 10:17:37;;;;;;;5.13;3.58;;;;;;;33.78;33.56;93653.13;2051520;70;20162;-85
2023/09/04 10:20:05;;;;;;;3.60;3.08;;;;;;;32.55;33.85;93652.81;2051649;70;20202;-85
2023/09/04 10:22:37;;;;;;;5.93;3.20;;;;;;;33.90;32.88;93647.13;2052016;70;20161;-90
2023/09/04 10:25:11;;;;;;;7.03;3.28;;;;;;;34.86;32.48;93648.72;2051834;70;20586;-95
2023/09/04 10:27:49;;;;;;;4.38;3.00;;;;;;;35.41;31.12;93641.22;2051791;70;20162;-87
2023/09/04 10:30:18;;;;;;;4.95;3.70;;;;;;;35.16;31.45;93640.22;2051282;70;20145;-84
2023/09/04 10:32:45;;;;;;;4.05;3.25;;;;;;;35.17;31.67;93632.88;2051446;70;20630;-89
2023/09/04 10:35:11;;;;;;;3.80;3.15;;;;;;;35.30;30.93;93642.88;2051542;70;20150;-85
2023/09/04 10:37:37;;;;;;;5.57;3.30;;;;;;;36.04;30.88;93631.22;2051434;70;20218;-88
2023/09/04 10:40:06;;;;;;;4.47;3.35;;;;;;;37.08;28.95;93634.00;2051399;70;20154;-87
2023/09/04 10:42:33;;;;;;;4.72;3.20;;;;;;;37.17;29.15;93634.53;2051282;70;20138;-88
2023/09/04 10:45:12;;;;;;;4.10;2.90;;;;;;;38.92;27.21;93625.84;2051163;70;20229;-86
2023/09/04 10:47:56;;;;;;;3.92;2.80;;;;;;;39.67;26.12;93623.31;2051484;70;20170;-86
2023/09/04 10:50:37;;;;;;;4.15;3.00;;;;;;;38.06;25.42;93629.16;2051305;70;20150;-84
2023/09/04 10:53:04;;;;;;;4.03;2.50;;;;;;;38.94;25.58;93619.88;2051426;70;20155;-87
2023/09/04 10:55:31;;;;;;;4.60;2.78;;;;;;;36.54;27.19;93616.22;2051291;70;20629;-89
2023/09/04 10:57:59;;;;;;;3.38;2.50;;;;;;;37.99;27.21;93616.16;2051224;70;20178;-88
2023/09/04 11:00:27;;;;;;;4.75;2.80;;;;;;;40.04;25.45;93616.09;2051150;70;20162;-89
2023/09/04 11:02:53;;;;;;;5.15;2.60;;;;;;;37.30;25.15;93609.94;2051567;70;20166;-87
2023/09/04 11:05:19;;;;;;;2.80;2.38;;;;;;;37.71;25.46;93605.19;2051284;70;20256;-89
2023/09/04 11:07:44;;;;;;;3.05;2.13;;;;;;;40.13;24.02;93612.06;2052021;70;20225;-89
2023/09/04 11:10:13;;;;;;;3.30;2.50;;;;;;;41.97;22.62;93616.41;2051997;70;20614;-91
2023/09/04 11:12:39;;;;;;;2.97;2.38;;;;;;;40.97;21.82;93614.03;2048686;70;20162;-90
2023/09/04 11:15:14;;;;;;;2.72;2.22;;;;;;;41.87;21.57;93608.69;2055378;70;20153;-86
2023/09/04 11:17:44;;;;;;;3.92;2.28;;;;;;;43.17;20.84;93613.00;2056180;70;20225;-87
2023/09/04 11:20:12;;;;;;;2.63;2.10;;;;;;;44.97;18.41;93616.09;2055537;70;20235;-90
2023/09/04 11:22:37;;;;;;;2.88;2.15;;;;;;;44.31;18.64;93600.47;2055553;70;20604;-91
2023/09/04 11:25:04;;;;;;;2.90;2.10;;;;;;;44.86;17.15;93601.13;2055360;70;20257;-87
2023/09/04 11:27:29;;;;;;;2.20;2.00;;;;;;;45.31;17.27;93601.50;2051733;70;20530;-87
2023/09/04 11:30:00;;;;;;;3.33;2.10;;;;;;;43.39;18.31;93590.41;2051718;70;20177;-87
2023/09/04 11:32:25;;;;;;;3.65;2.00;;;;;;;47.16;17.46;93599.84;2055324;70;20186;-88